Time;durP1;ratioP1;P1;durP2;ratioP2;P2;SDS_P1;SDS_P2;PMS_P1;PMS_P2;Temp;Humidity;BMP_temperature;BMP_pressure;BME280_temperature;BME280_humidity;BME280_pressure;Samples;Min_cycle;Max_cycle;Signal;HPM_P1;HPM_P2
2023/03/03 00:02:12;;;;;;;3.15;2.95;;;;;;;6.11;57.54;100154.38;4480321;31;33812;-84
2023/03/03 00:04:40;;;;;;;0.68;0.68;;;;;;;5.99;57.84;100158.13;4490898;31;33933;-84
2023/03/03 00:07:08;;;;;;;2.08;1.50;;;;;;;5.88;57.95;100155.66;4480397;31;34050;-84
2023/03/03 00:09:35;;;;;;;0.80;0.80;;;;;;;6.05;57.41;100155.37;4480290;31;32227;-84
2023/03/03 00:12:25;;;;;;;0.37;0.37;;;;;;;6.08;57.36;100152.69;4486772;31;32634;-84
2023/03/03 00:14:53;;;;;;;2.25;1.92;;;;;;;6.03;57.22;100151.94;4471436;31;32658;-84
2023/03/03 00:17:24;;;;;;;2.22;2.08;;;;;;;5.82;57.96;100153.16;4463552;31;33225;-83
2023/03/03 00:19:52;;;;;;;0.43;0.43;;;;;;;5.85;57.74;100153.09;4475737;31;33771;-83
2023/03/03 00:22:28;;;;;;;0.40;0.40;;;;;;;5.85;57.18;100155.72;4464208;31;32682;-83
2023/03/03 00:25:27;;;;;;;1.87;1.27;;;;;;;5.47;58.91;100150.31;4486192;31;33322;-83
2023/03/03 00:28:00;;;;;;;1.87;1.65;;;;;;;5.40;59.02;100141.69;4479356;31;32729;-83
2023/03/03 00:30:28;;;;;;;0.80;0.80;;;;;;;5.30;59.73;100154.06;4479788;31;33063;-83
2023/03/03 00:32:55;;;;;;;1.42;1.37;;;;;;;5.44;59.29;100142.50;4476474;31;33507;-84
2023/03/03 00:35:34;;;;;;;1.23;1.12;;;;;;;5.32;59.71;100157.53;4477040;31;33340;-84
2023/03/03 00:38:13;;;;;;;2.00;1.55;;;;;;;5.28;60.19;100152.37;4476862;31;32720;-83
2023/03/03 00:40:41;;;;;;;8.10;2.08;;;;;;;5.36;60.23;100150.47;4466845;32;32448;-84
2023/03/03 00:43:22;;;;;;;1.10;1.02;;;;;;;5.45;59.76;100141.59;4476908;31;34652;-84
2023/03/03 00:45:50;;;;;;;1.10;1.10;;;;;;;5.52;59.60;100151.09;4472023;31;35212;-83
2023/03/03 00:48:22;;;;;;;1.45;1.35;;;;;;;5.47;59.75;100151.19;4463763;31;32463;-83
2023/03/03 00:50:51;;;;;;;4.95;2.35;;;;;;;5.76;58.71;100140.16;4480762;31;33321;-83
2023/03/03 00:53:21;;;;;;;0.43;0.43;;;;;;;5.55;58.77;100143.16;4480073;31;33995;-83
2023/03/03 00:55:50;;;;;;;0.28;0.28;;;;;;;5.46;59.04;100138.09;4467705;31;34392;-83
2023/03/03 00:58:20;;;;;;;1.02;0.57;;;;;;;5.40;59.52;100139.06;4479384;31;34487;-84
2023/03/03 01:00:50;;;;;;;3.58;3.22;;;;;;;5.53;59.31;100139.72;4471426;31;32705;-83
2023/03/03 01:03:21;;;;;;;1.48;1.45;;;;;;;5.46;59.21;100133.75;4474142;31;35149;-84
2023/03/03 01:05:49;;;;;;;0.65;0.65;;;;;;;5.54;58.86;100120.50;4473766;31;33633;-83
2023/03/03 01:08:18;;;;;;;1.73;1.62;;;;;;;5.53;58.79;100134.47;4478376;31;33757;-83
2023/03/03 01:10:51;;;;;;;0.82;0.82;;;;;;;5.45;58.97;100126.75;4473644;31;33453;-83
2023/03/03 01:13:22;;;;;;;1.42;1.35;;;;;;;5.49;58.89;100123.19;4484426;31;33682;-83
2023/03/03 01:15:51;;;;;;;1.25;1.15;;;;;;;5.55;58.59;100120.44;4481609;31;34789;-83
2023/03/03 01:18:19;;;;;;;0.95;0.95;;;;;;;5.44;58.99;100118.94;4486489;31;34146;-83
2023/03/03 01:20:47;;;;;;;0.47;0.47;;;;;;;5.55;58.61;100112.59;4488900;31;33161;-82
2023/03/03 01:23:14;;;;;;;1.98;1.25;;;;;;;5.38;59.07;100112.91;4478910;31;34181;-83
2023/03/03 01:25:42;;;;;;;0.93;0.93;;;;;;;5.54;58.85;100115.25;4482806;31;34735;-83
2023/03/03 01:28:10;;;;;;;1.02;0.73;;;;;;;5.55;58.89;100109.97;4485739;31;34403;-83
2023/03/03 01:30:38;;;;;;;1.17;0.82;;;;;;;5.48;59.11;100107.50;4472058;31;32825;-83
2023/03/03 01:33:05;;;;;;;0.30;0.30;;;;;;;5.61;58.91;100103.78;4484580;31;33559;-83
2023/03/03 01:35:35;;;;;;;0.15;0.15;;;;;;;5.60;58.99;100109.88;4487417;31;34701;-83
2023/03/03 01:38:02;;;;;;;0.50;0.50;;;;;;;5.60;59.35;100096.78;4482296;31;33824;-83
2023/03/03 01:40:30;;;;;;;0.45;0.45;;;;;;;5.67;59.19;100100.19;4467693;31;32390;-83
2023/03/03 01:43:00;;;;;;;4.37;0.77;;;;;;;5.64;59.40;100094.09;4467901;31;32661;-82
2023/03/03 01:45:30;;;;;;;1.12;1.02;;;;;;;5.63;59.38;100096.75;4479169;31;34732;-83
2023/03/03 01:48:04;;;;;;;3.62;1.77;;;;;;;5.63;59.75;100101.97;4464861;31;33650;-82
2023/03/03 01:50:36;;;;;;;3.28;1.42;;;;;;;5.69;59.47;100094.00;4476992;31;34050;-81
2023/03/03 01:53:05;;;;;;;1.02;1.02;;;;;;;5.73;59.46;100100.06;4491652;31;34360;-82
2023/03/03 01:55:36;;;;;;;1.17;0.98;;;;;;;5.72;59.76;100093.94;4487274;31;34702;-82
2023/03/03 01:58:09;;;;;;;1.80;1.67;;;;;;;5.81;59.49;100093.78;4476552;31;33052;-82
2023/03/03 02:00:40;;;;;;;0.35;0.35;;;;;;;5.84;59.59;100088.50;4491789;31;32953;-84
2023/03/03 02:03:08;;;;;;;1.15;1.12;;;;;;;5.81;59.55;100083.28;4474901;31;33550;-84
2023/03/03 02:05:36;;;;;;;1.15;1.08;;;;;;;5.93;59.55;100087.44;4466647;31;33963;-83
2023/03/03 02:08:04;;;;;;;0.37;0.37;;;;;;;6.02;59.39;100096.88;4466304;31;32417;-84
2023/03/03 02:10:35;;;;;;;0.20;0.20;;;;;;;5.98;59.54;100090.88;4481633;31;33118;-83
2023/03/03 02:13:03;;;;;;;3.20;3.00;;;;;;;6.03;59.47;100089.00;4463405;31;33680;-83
2023/03/03 02:15:36;;;;;;;0.80;0.80;;;;;;;5.94;59.90;100088.34;4467020;31;33597;-83
2023/03/03 02:18:11;;;;;;;0.20;0.20;;;;;;;6.03;60.02;100075.00;4472409;31;33284;-82
2023/03/03 02:20:42;;;;;;;1.27;1.27;;;;;;;6.12;59.44;100077.44;4489508;31;33431;-83
2023/03/03 02:23:31;;;;;;;1.48;1.37;;;;;;;6.11;59.76;100075.72;4492135;31;34434;-82
2023/03/03 02:26:12;;;;;;;4.55;2.85;;;;;;;5.94;60.52;100077.84;4478193;31;34490;-82
2023/03/03 02:28:41;;;;;;;1.17;1.12;;;;;;;6.07;60.08;100076.69;4486986;31;33883;-83
2023/03/03 02:31:13;;;;;;;0.43;0.43;;;;;;;6.24;59.63;100069.34;4463705;31;32919;-83
2023/03/03 02:33:42;;;;;;;0.80;0.80;;;;;;;6.17;59.94;100075.59;4471115;31;35289;-83
2023/03/03 02:36:12;;;;;;;1.27;1.12;;;;;;;6.19;60.15;100073.81;4453434;31;33822;-83
2023/03/03 02:38:43;;;;;;;0.55;0.55;;;;;;;6.31;59.82;100073.53;4480298;31;32895;-83
2023/03/03 02:41:26;;;;;;;0.55;0.55;;;;;;;6.43;59.55;100071.56;4482720;31;31851;-83
2023/03/03 02:44:01;;;;;;;0.47;0.47;;;;;;;6.70;58.58;100070.06;4478975;31;32460;-83
2023/03/03 02:46:38;;;;;;;2.78;1.50;;;;;;;6.46;59.44;100064.50;4491617;31;33740;-82
2023/03/03 02:49:07;;;;;;;0.75;0.75;;;;;;;6.37;60.24;100072.56;4468022;31;33986;-83
2023/03/03 02:51:35;;;;;;;0.88;0.88;;;;;;;6.43;60.25;100069.78;4481269;31;32658;-82
2023/03/03 02:54:04;;;;;;;1.20;1.00;;;;;;;6.58;59.90;100063.31;4484001;31;34500;-82
2023/03/03 02:56:32;;;;;;;1.55;0.77;;;;;;;6.57;60.05;100062.47;4472114;31;32608;-82
2023/03/03 02:59:00;;;;;;;1.52;1.42;;;;;;;6.66;60.11;100064.03;4466081;31;33105;-82
2023/03/03 03:01:31;;;;;;;0.57;0.57;;;;;;;6.64;60.01;100053.53;4467921;31;32535;-81
2023/03/03 03:03:58;;;;;;;6.18;2.72;;;;;;;6.68;60.19;100042.06;4478034;31;32677;-82
2023/03/03 03:06:26;;;;;;;1.73;1.62;;;;;;;6.74;60.15;100048.06;4467216;31;33701;-83
2023/03/03 03:08:55;;;;;;;3.53;2.05;;;;;;;6.77;60.10;100045.38;4476849;31;33124;-83
2023/03/03 03:11:22;;;;;;;0.62;0.62;;;;;;;6.76;60.10;100052.41;4463961;31;33066;-82
2023/03/03 03:13:50;;;;;;;0.75;0.75;;;;;;;6.71;60.54;100043.78;4487579;31;32897;-82
2023/03/03 03:16:18;;;;;;;1.12;1.08;;;;;;;6.87;60.21;100037.25;4488829;31;33947;-82
2023/03/03 03:18:46;;;;;;;0.35;0.35;;;;;;;6.96;59.91;100045.78;4483506;31;34490;-82
2023/03/03 03:21:14;;;;;;;15.60;1.30;;;;;;;6.90;60.23;100042.44;4473836;31;34745;-83
2023/03/03 03:23:41;;;;;;;0.62;0.62;;;;;;;6.91;60.41;100035.41;4478633;31;32599;-81
2023/03/03 03:26:11;;;;;;;0.85;0.85;;;;;;;6.94;60.24;100032.72;4476442;31;34474;-81
2023/03/03 03:28:39;;;;;;;2.22;1.02;;;;;;;7.03;59.98;100034.25;4472559;31;34056;-83
2023/03/03 03:31:08;;;;;;;1.70;1.60;;;;;;;7.11;59.92;100029.66;4470857;31;32208;-81
2023/03/03 03:33:36;;;;;;;1.67;1.62;;;;;;;7.04;60.11;100028.09;4475846;31;33618;-83
2023/03/03 03:36:05;;;;;;;1.05;0.73;;;;;;;7.08;59.99;100027.97;4484491;31;33948;-81
2023/03/03 03:38:33;;;;;;;0.43;0.43;;;;;;;7.05;60.29;100029.81;4474744;31;33625;-82
2023/03/03 03:41:01;;;;;;;1.30;1.00;;;;;;;7.15;60.17;100021.66;4479165;31;32733;-83
2023/03/03 03:43:29;;;;;;;0.25;0.25;;;;;;;7.22;59.95;100025.00;4468591;31;34527;-83
2023/03/03 03:45:57;;;;;;;1.05;1.00;;;;;;;7.24;59.92;100017.06;4480516;31;32744;-81
2023/03/03 03:48:25;;;;;;;0.22;0.22;;;;;;;7.30;59.95;100020.37;4478531;31;32587;-81
2023/03/03 03:50:54;;;;;;;0.68;0.68;;;;;;;7.25;60.19;100017.00;4479979;31;31792;-81
2023/03/03 03:53:22;;;;;;;2.08;1.17;;;;;;;7.30;59.94;100023.00;4466720;31;34349;-81
2023/03/03 03:55:50;;;;;;;0.85;0.85;;;;;;;7.32;59.83;100023.84;4480654;31;34700;-80
2023/03/03 03:58:18;;;;;;;0.57;0.57;;;;;;;7.33;59.98;100019.44;4464786;31;33434;-81
2023/03/03 04:00:47;;;;;;;2.45;2.17;;;;;;;7.30;60.21;100016.91;4456496;31;32304;-81
2023/03/03 04:03:15;;;;;;;2.25;2.08;;;;;;;7.33;60.22;100015.06;4471672;31;33846;-82
2023/03/03 04:05:43;;;;;;;1.62;1.52;;;;;;;7.38;60.26;100018.41;4478408;31;34294;-81
2023/03/03 04:08:11;;;;;;;1.45;1.37;;;;;;;7.40;60.28;100015.75;4464162;31;32901;-81
2023/03/03 04:10:39;;;;;;;4.12;2.12;;;;;;;7.40;60.14;100007.84;4471897;31;32270;-81
2023/03/03 04:13:07;;;;;;;1.02;1.02;;;;;;;7.43;60.17;100010.41;4478120;31;34521;-81
2023/03/03 04:15:35;;;;;;;0.32;0.32;;;;;;;7.55;59.88;100003.94;4464090;31;33040;-81
2023/03/03 04:18:03;;;;;;;2.22;2.12;;;;;;;7.47;60.22;100005.94;4472186;31;33071;-81
2023/03/03 04:20:30;;;;;;;1.80;1.65;;;;;;;7.53;60.03;100006.63;4464269;31;32406;-81
2023/03/03 04:22:58;;;;;;;2.80;1.80;;;;;;;7.57;59.89;100004.78;4466002;31;33148;-81
2023/03/03 04:25:26;;;;;;;1.45;1.42;;;;;;;7.54;60.18;99996.97;4479563;31;33989;-81
2023/03/03 04:27:53;;;;;;;0.75;0.75;;;;;;;7.67;59.70;99999.22;4490686;31;33932;-82
2023/03/03 04:30:21;;;;;;;1.85;1.02;;;;;;;7.64;59.87;99998.44;4462514;31;32292;-82
2023/03/03 04:32:49;;;;;;;1.87;1.70;;;;;;;7.61;59.78;99998.53;4467926;31;33712;-82
2023/03/03 04:35:18;;;;;;;0.90;0.90;;;;;;;7.69;59.69;100001.78;4472180;31;34298;-82
2023/03/03 04:37:46;;;;;;;2.55;1.48;;;;;;;7.76;59.67;100003.34;4462636;31;33076;-81
2023/03/03 04:40:16;;;;;;;1.90;1.17;;;;;;;7.80;59.59;100001.50;4492828;31;34044;-82
2023/03/03 04:42:44;;;;;;;1.75;1.65;;;;;;;7.83;59.52;99997.03;4477353;31;34204;-81
2023/03/03 04:45:12;;;;;;;1.00;0.98;;;;;;;7.82;59.61;99997.91;4473518;31;33329;-81
2023/03/03 04:47:40;;;;;;;0.20;0.20;;;;;;;7.69;59.83;99997.41;4476870;31;34390;-80
2023/03/03 04:50:09;;;;;;;1.67;1.55;;;;;;;7.81;59.59;99988.28;4484929;31;33074;-81
2023/03/03 04:52:37;;;;;;;0.65;0.65;;;;;;;7.71;59.86;99994.72;4471645;31;33992;-80
2023/03/03 04:55:06;;;;;;;0.95;0.95;;;;;;;7.75;59.82;100001.62;4468701;31;34226;-81
2023/03/03 04:57:37;;;;;;;2.45;1.05;;;;;;;7.80;59.89;99994.47;4493309;31;32951;-80
2023/03/03 05:00:06;;;;;;;3.92;1.25;;;;;;;7.86;59.69;99994.28;4480210;31;31525;-80
2023/03/03 05:02:35;;;;;;;2.37;1.40;;;;;;;7.90;nan;99989.81;4462854;31;33720;-81
2023/03/03 05:05:03;;;;;;;0.40;0.40;;;;;;;7.94;59.63;99991.44;4493611;31;33911;-81
2023/03/03 05:07:30;;;;;;;2.20;1.58;;;;;;;7.97;59.69;100001.84;4474904;31;33088;-81
2023/03/03 05:09:58;;;;;;;0.85;0.73;;;;;;;7.89;59.73;99994.19;4472327;31;33228;-81
2023/03/03 05:12:26;;;;;;;0.82;0.82;;;;;;;7.80;60.25;100004.13;4462376;31;33656;-80
2023/03/03 05:14:53;;;;;;;2.35;2.15;;;;;;;7.99;59.78;99999.19;4468478;31;33759;-80
2023/03/03 05:17:21;;;;;;;1.58;0.98;;;;;;;7.92;59.92;99995.84;4484714;31;33757;-80
2023/03/03 05:19:49;;;;;;;1.65;1.55;;;;;;;8.05;59.76;99999.84;4479713;31;32399;-80
2023/03/03 05:22:17;;;;;;;1.70;1.58;;;;;;;7.97;59.95;100001.84;4483046;31;33963;-80
2023/03/03 05:24:47;;;;;;;4.18;3.85;;;;;;;8.06;59.77;99998.06;4482062;31;33912;-80
2023/03/03 05:27:15;;;;;;;2.08;1.98;;;;;;;8.09;59.64;99996.22;4474746;31;34404;-81
2023/03/03 05:29:43;;;;;;;5.45;2.25;;;;;;;8.14;59.66;100001.34;4487390;31;32610;-81
2023/03/03 05:32:11;;;;;;;1.33;0.77;;;;;;;8.08;59.69;99996.28;4492817;31;33585;-80
2023/03/03 05:34:38;;;;;;;0.95;0.95;;;;;;;8.13;59.72;100002.25;4483881;31;33844;-79
2023/03/03 05:37:06;;;;;;;4.62;3.58;;;;;;;8.13;nan;100002.25;4487293;31;33433;-79
2023/03/03 05:39:35;;;;;;;2.05;1.95;;;;;;;8.12;59.79;100004.03;4481258;31;33118;-80
2023/03/03 05:42:03;;;;;;;1.50;1.42;;;;;;;8.15;59.79;100003.06;4477365;31;34616;-80
2023/03/03 05:44:31;;;;;;;4.82;3.37;;;;;;;8.17;59.84;100007.38;4471558;31;34347;-81
2023/03/03 05:46:58;;;;;;;4.18;1.62;;;;;;;8.21;59.79;100006.37;4479473;31;33728;-80
2023/03/03 05:49:26;;;;;;;0.93;0.93;;;;;;;8.25;59.91;100006.28;4472548;31;33245;-81
2023/03/03 05:51:54;;;;;;;3.90;2.70;;;;;;;8.26;60.01;100008.88;4466777;31;33656;-81
2023/03/03 05:54:21;;;;;;;0.77;0.77;;;;;;;8.57;58.92;100008.78;4467476;31;34338;-81
2023/03/03 05:56:49;;;;;;;1.42;1.33;;;;;;;8.49;59.05;100015.19;4479091;31;33528;-81
2023/03/03 05:59:17;;;;;;;1.02;1.00;;;;;;;8.38;59.60;100019.03;4472413;31;32469;-81
2023/03/03 06:01:45;;;;;;;1.95;1.37;;;;;;;8.37;59.88;100016.47;4470906;31;33576;-81
2023/03/03 06:04:13;;;;;;;1.85;1.75;;;;;;;8.36;59.99;100015.59;4468130;31;33840;-81
2023/03/03 06:06:41;;;;;;;1.75;1.02;;;;;;;8.31;60.19;100016.59;4476664;31;32594;-81
2023/03/03 06:09:08;;;;;;;7.68;2.42;;;;;;;8.40;60.02;100016.34;4464032;31;32268;-81
2023/03/03 06:11:36;;;;;;;0.20;0.20;;;;;;;8.37;60.20;100014.69;4476025;31;33844;-81
2023/03/03 06:14:04;;;;;;;0.80;0.77;;;;;;;8.50;59.89;100016.91;4478638;31;34056;-81
2023/03/03 06:16:31;;;;;;;1.58;1.25;;;;;;;8.45;60.12;100024.94;4458243;31;32597;-81
2023/03/03 06:19:00;;;;;;;0.22;0.22;;;;;;;8.38;60.35;100021.66;4469186;32;32969;-81
2023/03/03 06:21:28;;;;;;;1.48;1.37;;;;;;;8.51;60.12;100027.41;4480536;31;34228;-82
2023/03/03 06:23:56;;;;;;;2.00;1.73;;;;;;;8.61;60.07;100020.09;4461390;31;34700;-80
2023/03/03 06:26:24;;;;;;;1.65;1.55;;;;;;;8.65;60.19;100027.84;4477573;31;31469;-80
2023/03/03 06:28:54;;;;;;;1.67;1.58;;;;;;;8.89;59.27;100028.81;4476260;31;32660;-79
2023/03/03 06:31:21;;;;;;;6.80;1.55;;;;;;;9.12;58.50;100032.44;4468119;31;33688;-80
2023/03/03 06:33:50;;;;;;;7.55;1.23;;;;;;;9.06;58.76;100030.00;4473382;31;33419;-80
2023/03/03 06:36:18;;;;;;;3.25;2.62;;;;;;;8.94;59.12;100024.25;4474712;31;34145;-80
2023/03/03 06:38:45;;;;;;;1.95;1.80;;;;;;;8.74;59.90;100031.09;4451772;31;33696;-80
2023/03/03 06:41:13;;;;;;;1.70;1.60;;;;;;;8.70;60.24;100027.69;4465272;31;32969;-79
2023/03/03 06:43:41;;;;;;;1.77;1.67;;;;;;;8.69;60.37;100034.72;4472602;31;34333;-80
2023/03/03 06:46:08;;;;;;;2.97;2.78;;;;;;;8.46;61.66;100032.81;4474089;31;33808;-80
2023/03/03 06:48:36;;;;;;;0.85;0.85;;;;;;;8.67;61.09;100028.62;4479141;31;33327;-80
2023/03/03 06:51:19;;;;;;;2.12;1.80;;;;;;;8.65;61.54;100026.97;4472054;31;33606;-80
2023/03/03 06:53:49;;;;;;;2.40;1.55;;;;;;;8.76;61.50;100029.25;4480170;31;34431;-80
2023/03/03 06:56:17;;;;;;;3.03;2.65;;;;;;;9.13;60.31;100029.75;4466162;31;34000;-80
2023/03/03 06:58:44;;;;;;;0.93;0.93;;;;;;;9.39;59.58;100033.25;4473322;31;34285;-80
2023/03/03 07:01:16;;;;;;;5.05;2.92;;;;;;;9.20;59.86;100035.66;4481609;31;34112;-80
2023/03/03 07:03:43;;;;;;;6.07;0.75;;;;;;;9.08;60.16;100046.63;4465318;31;33966;-79
2023/03/03 07:06:31;;;;;;;1.05;0.80;;;;;;;9.49;59.26;100040.81;4484963;31;33857;-79
2023/03/03 07:09:00;;;;;;;3.58;1.87;;;;;;;9.59;58.88;100046.59;4483074;31;32732;-80
2023/03/03 07:11:30;;;;;;;3.17;2.72;;;;;;;9.28;59.66;100046.81;4465736;31;33823;-80
2023/03/03 07:13:57;;;;;;;3.53;3.00;;;;;;;9.41;59.41;100052.53;4473882;31;34235;-80
2023/03/03 07:16:26;;;;;;;2.12;1.90;;;;;;;9.29;59.25;100053.78;4460470;31;33472;-80
2023/03/03 07:18:56;;;;;;;2.47;2.30;;;;;;;9.30;59.30;100047.59;4474163;31;32862;-79
2023/03/03 07:21:30;;;;;;;5.43;3.35;;;;;;;9.46;58.81;100053.22;4473009;31;33929;-80
2023/03/03 07:24:00;;;;;;;3.87;2.25;;;;;;;9.41;58.94;100056.00;4478947;31;34809;-80
2023/03/03 07:26:31;;;;;;;5.97;1.80;;;;;;;9.48;58.74;100062.78;4466789;31;32585;-80
2023/03/03 07:29:22;;;;;;;5.28;2.37;;;;;;;9.51;58.32;100058.31;4471168;31;32646;-80
2023/03/03 07:31:50;;;;;;;4.03;3.12;;;;;;;9.56;58.03;100064.28;4473073;31;33765;-79
2023/03/03 07:34:26;;;;;;;6.45;3.50;;;;;;;9.72;57.67;100065.47;4472138;31;34715;-80
2023/03/03 07:37:00;;;;;;;9.18;2.50;;;;;;;9.87;57.23;100064.91;4472009;31;33954;-80
2023/03/03 07:39:31;;;;;;;3.20;2.60;;;;;;;9.98;56.88;100069.81;4464597;31;32222;-80
2023/03/03 07:42:08;;;;;;;6.32;5.50;;;;;;;10.38;55.61;100061.25;4484599;31;32883;-79
2023/03/03 07:44:36;;;;;;;2.47;2.28;;;;;;;10.42;55.09;100060.22;4470445;31;33346;-79
2023/03/03 07:47:25;;;;;;;4.07;3.70;;;;;;;10.30;55.44;100065.97;4471989;31;33149;-80
2023/03/03 07:49:56;;;;;;;2.42;2.33;;;;;;;10.24;55.71;100063.56;4479262;31;32950;-80
2023/03/03 07:52:41;;;;;;;4.15;3.70;;;;;;;10.30;55.91;100067.75;4475578;31;33425;-80
2023/03/03 07:55:24;;;;;;;1.50;1.40;;;;;;;10.01;56.43;100077.59;4473412;31;34411;-80
2023/03/03 07:57:56;;;;;;;1.80;1.70;;;;;;;10.10;56.69;100079.03;4482522;31;33696;-79
2023/03/03 08:00:29;;;;;;;4.78;4.37;;;;;;;10.23;56.01;100067.97;4476662;31;33385;-79
2023/03/03 08:03:00;;;;;;;0.88;0.88;;;;;;;10.09;57.03;100079.94;4485887;31;34379;-79
2023/03/03 08:05:34;;;;;;;1.20;0.95;;;;;;;10.35;56.20;100077.22;4477173;31;34384;-80
2023/03/03 08:08:30;;;;;;;0.82;0.82;;;;;;;10.32;55.96;100081.75;4477747;31;33832;-79
2023/03/03 08:11:02;;;;;;;4.32;3.92;;;;;;;10.25;56.56;100071.44;4468826;31;35211;-80
2023/03/03 08:13:32;;;;;;;4.10;2.45;;;;;;;9.98;57.90;100073.28;4476526;31;34260;-80
2023/03/03 08:16:10;;;;;;;1.60;1.50;;;;;;;10.08;57.82;100072.97;4478786;31;32749;-80
2023/03/03 08:18:46;;;;;;;1.27;1.15;;;;;;;10.10;57.42;100071.09;4481779;31;32786;-80
2023/03/03 08:21:19;;;;;;;5.25;2.70;;;;;;;9.97;57.80;100076.84;4469749;31;34034;-80
2023/03/03 08:23:52;;;;;;;3.08;2.25;;;;;;;10.21;57.43;100076.88;4467494;31;31066;-80
2023/03/03 08:26:20;;;;;;;3.50;2.25;;;;;;;10.31;57.35;100067.72;4466677;31;33914;-80
2023/03/03 08:28:49;;;;;;;4.37;2.58;;;;;;;10.11;57.40;100067.53;4451020;31;33844;-79
2023/03/03 08:31:17;;;;;;;3.10;2.37;;;;;;;9.96;57.75;100068.97;4451049;31;32480;-80
2023/03/03 08:34:04;;;;;;;2.60;2.10;;;;;;;9.90;57.91;100070.06;4475944;31;33544;-80
2023/03/03 08:36:32;;;;;;;2.15;2.05;;;;;;;9.45;59.25;100078.72;4456439;31;33035;-81
2023/03/03 08:39:03;;;;;;;2.33;2.22;;;;;;;9.58;59.00;100067.72;4477817;31;33019;-80
2023/03/03 08:41:31;;;;;;;1.02;1.02;;;;;;;10.12;57.98;100074.56;4477520;31;32432;-80
2023/03/03 08:43:58;;;;;;;2.67;2.42;;;;;;;10.48;57.21;100067.91;4468073;31;33304;-78
2023/03/03 08:46:27;;;;;;;3.58;2.40;;;;;;;10.47;57.22;100065.31;4470592;31;34731;-80
2023/03/03 08:48:55;;;;;;;2.15;1.60;;;;;;;10.43;57.85;100069.84;4476924;31;33806;-80
2023/03/03 08:51:24;;;;;;;4.68;2.45;;;;;;;10.41;57.50;100070.84;4470189;31;33873;-80
2023/03/03 08:53:51;;;;;;;0.93;0.93;;;;;;;10.24;58.01;100079.41;4474626;31;33878;-80
2023/03/03 08:56:19;;;;;;;3.12;1.62;;;;;;;10.47;56.90;100076.75;4451696;31;34648;-80
2023/03/03 08:58:47;;;;;;;1.27;1.27;;;;;;;10.45;57.25;100068.03;4462736;31;32074;-80
2023/03/03 09:01:31;;;;;;;2.97;0.98;;;;;;;10.40;57.68;100063.84;4473683;31;32974;-80
2023/03/03 09:03:59;;;;;;;1.23;1.23;;;;;;;10.76;57.59;100065.03;4467695;31;33845;-80
2023/03/03 09:06:26;;;;;;;2.83;1.05;;;;;;;11.09;56.47;100066.34;4471148;31;34765;-80
2023/03/03 09:08:54;;;;;;;1.10;1.10;;;;;;;10.90;55.78;100067.09;4463386;31;33725;-80
2023/03/03 09:11:26;;;;;;;9.85;2.45;;;;;;;11.27;54.99;100060.31;4474593;31;33508;-81
2023/03/03 09:14:05;;;;;;;5.47;1.42;;;;;;;11.37;54.98;100064.28;4475789;31;33201;-80
2023/03/03 09:16:37;;;;;;;2.37;1.67;;;;;;;11.19;55.46;100065.03;4468251;31;33975;-80
2023/03/03 09:19:22;;;;;;;4.30;2.85;;;;;;;11.38;55.07;100060.69;4465304;31;32938;-80
2023/03/03 09:21:53;;;;;;;2.42;2.33;;;;;;;11.35;55.42;100055.56;4477161;31;33141;-80
2023/03/03 09:24:30;;;;;;;4.15;1.62;;;;;;;11.57;54.99;100067.84;4473028;31;33536;-80
2023/03/03 09:26:58;;;;;;;5.43;2.50;;;;;;;11.30;55.54;100062.84;4476485;31;33593;-80
2023/03/03 09:29:28;;;;;;;3.78;2.78;;;;;;;11.42;55.50;100057.00;4461448;31;33016;-80
2023/03/03 09:31:59;;;;;;;2.45;1.02;;;;;;;11.33;55.22;100062.69;4478667;31;31351;-80
2023/03/03 09:34:36;;;;;;;2.42;2.15;;;;;;;11.49;55.09;100053.19;4473633;31;33718;-82
2023/03/03 09:37:23;;;;;;;1.62;1.52;;;;;;;11.19;55.53;100059.75;4478194;31;33556;-80
2023/03/03 09:39:56;;;;;;;2.00;1.90;;;;;;;11.90;54.30;100068.16;4469762;31;33236;-80
2023/03/03 09:42:41;;;;;;;1.05;0.98;;;;;;;12.05;53.16;100065.69;4477277;31;33377;-80
2023/03/03 09:45:26;;;;;;;9.35;1.17;;;;;;;11.88;54.06;100076.19;4472301;31;33601;-80
2023/03/03 09:48:22;;;;;;;5.95;2.05;;;;;;;11.53;53.45;100064.47;4463094;31;32227;-80
2023/03/03 09:51:05;;;;;;;1.73;1.62;;;;;;;11.82;53.80;100064.97;4470747;31;33827;-80
2023/03/03 09:54:02;;;;;;;1.50;1.40;;;;;;;11.75;54.05;100065.25;4473197;31;32028;-80
2023/03/03 09:56:38;;;;;;;0.37;0.13;;;;;;;11.84;53.99;100069.31;4431582;32;32834;-80
2023/03/03 09:59:13;;;;;;;1.33;1.33;;;;;;;12.28;51.68;100050.53;4467364;31;33879;-80
2023/03/03 10:02:04;;;;;;;4.72;2.67;;;;;;;12.48;51.41;100046.94;4463780;31;33430;-80
2023/03/03 10:04:56;;;;;;;2.58;2.22;;;;;;;12.25;50.36;100056.00;4479756;31;34107;-80
2023/03/03 10:07:38;;;;;;;1.92;1.45;;;;;;;12.42;50.87;100045.44;4485608;31;32718;-80
2023/03/03 10:10:38;;;;;;;1.58;1.48;;;;;;;12.54;49.57;100047.53;4486172;31;34044;-81
2023/03/03 10:13:29;;;;;;;0.73;0.73;;;;;;;12.86;50.43;100049.53;4458695;31;33178;-80
2023/03/03 10:16:36;;;;;;;4.82;4.53;;;;;;;13.75;47.66;100037.94;4477199;31;33225;-81
2023/03/03 10:19:12;;;;;;;2.30;2.20;;;;;;;13.50;47.76;100041.88;4487330;31;33407;-80
2023/03/03 10:22:19;;;;;;;0.60;0.60;;;;;;;13.22;48.50;100041.59;4467423;31;34674;-80
2023/03/03 10:24:59;;;;;;;4.95;2.35;;;;;;;13.42;47.14;100038.75;4482827;31;34432;-81
2023/03/03 10:27:42;;;;;;;2.00;1.58;;;;;;;13.94;45.67;100036.00;4478888;31;33729;-81
2023/03/03 10:30:19;;;;;;;0.93;0.80;;;;;;;13.89;46.05;100038.06;4469907;31;34705;-80
2023/03/03 10:33:12;;;;;;;3.08;1.87;;;;;;;13.79;46.41;100028.88;4467852;31;32686;-81
2023/03/03 10:36:02;;;;;;;0.88;0.88;;;;;;;13.93;46.56;100023.69;4467332;31;32767;-81
2023/03/03 10:39:16;;;;;;;1.00;1.00;;;;;;;14.64;45.23;100010.03;4485966;31;32741;-81
2023/03/03 10:42:02;;;;;;;1.75;1.65;;;;;;;15.28;42.39;100016.06;4436302;32;34269;-80
2023/03/03 10:45:21;;;;;;;4.85;2.33;;;;;;;14.85;43.69;100013.25;4461910;31;32799;-80
2023/03/03 10:48:31;;;;;;;1.33;1.20;;;;;;;14.50;45.69;100010.81;4450824;31;33768;-80
2023/03/03 10:51:17;;;;;;;1.87;1.75;;;;;;;14.97;43.82;100006.37;4432443;31;34604;-79
2023/03/03 10:53:58;;;;;;;1.55;1.45;;;;;;;15.43;43.08;100012.50;4486291;31;33882;-80
2023/03/03 10:56:45;;;;;;;0.82;0.82;;;;;;;15.50;45.70;100005.84;4474995;31;34085;-80
2023/03/03 10:59:40;;;;;;;10.75;1.85;;;;;;;14.62;46.31;100000.44;4473972;31;33181;-80
2023/03/03 11:02:11;;;;;;;3.62;2.00;;;;;;;15.44;43.47;99995.56;4481955;31;33020;-80
2023/03/03 11:05:04;;;;;;;0.93;0.93;;;;;;;14.96;44.59;99994.03;4476133;31;32870;-80
2023/03/03 11:07:48;;;;;;;;;;;;;;;14.96;45.64;99997.56;4470533;31;33581;-80
2023/03/03 11:10:24;;;;;;;2.03;1.50;;;;;;;14.97;44.58;99991.28;4456538;31;32682;-80
2023/03/03 11:13:18;;;;;;;0.85;0.85;;;;;;;15.61;43.77;99992.72;4480624;31;33858;-80
2023/03/03 11:15:54;;;;;;;1.25;1.15;;;;;;;15.31;45.49;99984.81;4470534;31;32942;-80
2023/03/03 11:18:48;;;;;;;1.08;0.77;;;;;;;15.91;44.08;99985.66;4476855;31;35423;-80
2023/03/03 11:21:25;;;;;;;1.30;1.17;;;;;;;15.66;43.23;99979.16;4471326;31;33520;-80
2023/03/03 11:24:11;;;;;;;2.25;2.05;;;;;;;14.85;44.34;99973.38;4459752;31;32597;-80
2023/03/03 11:27:03;;;;;;;1.70;1.05;;;;;;;15.78;43.36;99961.59;4479584;31;34420;-80
2023/03/03 11:30:03;;;;;;;5.37;3.00;;;;;;;15.76;42.87;99963.47;4473515;31;33916;-80
2023/03/03 11:32:33;;;;;;;1.50;1.40;;;;;;;15.73;43.74;99963.69;4483394;31;32947;-80
2023/03/03 11:35:20;;;;;;;11.85;1.77;;;;;;;15.70;43.69;99963.84;4483678;31;33001;-80
2023/03/03 11:38:00;;;;;;;3.00;1.85;;;;;;;14.96;45.38;99957.66;4454464;31;33554;-81
2023/03/03 11:40:36;;;;;;;1.60;1.40;;;;;;;15.10;43.62;99952.38;4466737;31;33711;-82
2023/03/03 11:43:23;;;;;;;1.23;1.12;;;;;;;15.30;45.36;99953.84;4260244;32;33546;-82
2023/03/03 11:45:59;;;;;;;10.07;2.47;;;;;;;15.72;44.00;99943.34;4461882;31;236145;-81
2023/03/03 11:48:40;;;;;;;0.98;0.98;;;;;;;15.59;42.54;99945.88;4398195;32;31957;-81
2023/03/03 11:51:22;;;;;;;0.70;0.60;;;;;;;16.03;40.37;99940.44;4370759;32;33899;-81
2023/03/03 11:53:56;;;;;;;0.82;0.82;;;;;;;15.32;42.35;99945.75;4309987;32;33736;-81
2023/03/03 11:56:26;;;;;;;3.67;1.73;;;;;;;15.72;41.12;99944.19;4285099;32;35489;-81
2023/03/03 11:59:33;;;;;;;2.47;1.87;;;;;;;15.71;41.70;99936.28;4430128;31;799842;-81
2023/03/03 12:02:54;;;;;;;10.88;1.65;;;;;;;15.71;41.70;99936.28;4217405;32;33055;-81